sensor_id;sensor_type;location;lat;lon;timestamp;temperature;humidity
35395;DHT22;21500;45.308;9.488;2023-06-14T00:00:21;21.40;99.90
35395;DHT22;21500;45.308;9.488;2023-06-14T00:02:47;21.50;99.90
35395;DHT22;21500;45.308;9.488;2023-06-14T00:05:13;21.50;99.90
35395;DHT22;21500;45.308;9.488;2023-06-14T00:07:41;21.50;99.90
35395;DHT22;21500;45.308;9.488;2023-06-14T00:10:09;21.40;99.90
35395;DHT22;21500;45.308;9.488;2023-06-14T00:12:35;21.40;99.90
35395;DHT22;21500;45.308;9.488;2023-06-14T00:15:02;21.40;99.90
35395;DHT22;21500;45.308;9.488;2023-06-14T00:17:28;21.50;99.90
35395;DHT22;21500;45.308;9.488;2023-06-14T00:19:56;21.40;99.90
35395;DHT22;21500;45.308;9.488;2023-06-14T00:22:23;21.40;99.90
35395;DHT22;21500;45.308;9.488;2023-06-14T00:24:54;21.40;99.90
35395;DHT22;21500;45.308;9.488;2023-06-14T00:27:20;21.30;99.90
35395;DHT22;21500;45.308;9.488;2023-06-14T00:29:46;21.40;99.90
35395;DHT22;21500;45.308;9.488;2023-06-14T00:32:25;21.30;99.90
35395;DHT22;21500;45.308;9.488;2023-06-14T00:34:55;21.30;99.90
35395;DHT22;21500;45.308;9.488;2023-06-14T00:37:21;21.30;99.90
35395;DHT22;21500;45.308;9.488;2023-06-14T00:39:47;21.20;99.90
35395;DHT22;21500;45.308;9.488;2023-06-14T00:42:26;21.30;99.90
35395;DHT22;21500;45.308;9.488;2023-06-14T00:44:52;21.10;99.90
35395;DHT22;21500;45.308;9.488;2023-06-14T00:47:18;21.20;99.90
35395;DHT22;21500;45.308;9.488;2023-06-14T00:49:49;21.10;99.90
35395;DHT22;21500;45.308;9.488;2023-06-14T00:52:17;21.30;99.90
35395;DHT22;21500;45.308;9.488;2023-06-14T00:54:43;21.20;99.90
35395;DHT22;21500;45.308;9.488;2023-06-14T00:57:10;21.10;99.90
35395;DHT22;21500;45.308;9.488;2023-06-14T00:59:45;21.20;99.90
35395;DHT22;21500;45.308;9.488;2023-06-14T01:02:11;21.30;99.90
35395;DHT22;21500;45.308;9.488;2023-06-14T01:04:38;21.20;99.90
35395;DHT22;21500;45.308;9.488;2023-06-14T01:07:23;21.20;99.90
35395;DHT22;21500;45.308;9.488;2023-06-14T01:12:44;21.20;99.90
35395;DHT22;21500;45.308;9.488;2023-06-14T01:15:15;21.10;99.90
35395;DHT22;21500;45.308;9.488;2023-06-14T01:17:42;21.10;99.90
35395;DHT22;21500;45.308;9.488;2023-06-14T01:20:13;21.20;99.90
35395;DHT22;21500;45.308;9.488;2023-06-14T01:22:53;21.20;99.90
35395;DHT22;21500;45.308;9.488;2023-06-14T01:25:20;21.10;99.90
35395;DHT22;21500;45.308;9.488;2023-06-14T01:28:01;21.00;99.90
35395;DHT22;21500;45.308;9.488;2023-06-14T01:30:29;21.00;99.90
35395;DHT22;21500;45.308;9.488;2023-06-14T01:32:57;21.00;99.90
35395;DHT22;21500;45.308;9.488;2023-06-14T01:35:23;21.00;99.90
35395;DHT22;21500;45.308;9.488;2023-06-14T01:37:50;21.00;99.90
35395;DHT22;21500;45.308;9.488;2023-06-14T01:40:18;20.90;99.90
35395;DHT22;21500;45.308;9.488;2023-06-14T01:42:46;20.90;99.90
35395;DHT22;21500;45.308;9.488;2023-06-14T01:45:14;20.90;99.90
35395;DHT22;21500;45.308;9.488;2023-06-14T01:47:40;21.00;99.90
35395;DHT22;21500;45.308;9.488;2023-06-14T01:50:06;20.80;99.90
35395;DHT22;21500;45.308;9.488;2023-06-14T01:52:33;20.80;99.90
35395;DHT22;21500;45.308;9.488;2023-06-14T01:54:59;20.70;99.90
35395;DHT22;21500;45.308;9.488;2023-06-14T01:57:28;20.80;99.90
35395;DHT22;21500;45.308;9.488;2023-06-14T01:59:54;20.80;99.90
35395;DHT22;21500;45.308;9.488;2023-06-14T02:02:20;20.80;99.90
35395;DHT22;21500;45.308;9.488;2023-06-14T02:04:46;20.70;99.90
35395;DHT22;21500;45.308;9.488;2023-06-14T02:07:13;20.80;99.90
35395;DHT22;21500;45.308;9.488;2023-06-14T02:09:41;20.80;99.90
35395;DHT22;21500;45.308;9.488;2023-06-14T02:12:07;20.70;99.90
35395;DHT22;21500;45.308;9.488;2023-06-14T02:14:33;20.70;99.90
35395;DHT22;21500;45.308;9.488;2023-06-14T02:16:59;20.60;99.90
35395;DHT22;21500;45.308;9.488;2023-06-14T02:19:32;20.60;99.90
35395;DHT22;21500;45.308;9.488;2023-06-14T02:21:58;20.50;99.90
35395;DHT22;21500;45.308;9.488;2023-06-14T02:24:24;20.60;99.90
35395;DHT22;21500;45.308;9.488;2023-06-14T02:26:50;20.50;99.90
35395;DHT22;21500;45.308;9.488;2023-06-14T02:29:16;20.50;99.90
35395;DHT22;21500;45.308;9.488;2023-06-14T02:31:41;20.50;99.90
35395;DHT22;21500;45.308;9.488;2023-06-14T02:34:07;20.40;99.90
35395;DHT22;21500;45.308;9.488;2023-06-14T02:36:36;20.40;99.90
35395;DHT22;21500;45.308;9.488;2023-06-14T02:39:10;20.30;99.90
35395;DHT22;21500;45.308;9.488;2023-06-14T02:41:36;20.30;99.90
35395;DHT22;21500;45.308;9.488;2023-06-14T02:44:04;20.40;99.90
35395;DHT22;21500;45.308;9.488;2023-06-14T02:46:29;20.30;99.90
35395;DHT22;21500;45.308;9.488;2023-06-14T02:48:55;20.30;99.90
35395;DHT22;21500;45.308;9.488;2023-06-14T02:51:21;20.30;99.90
35395;DHT22;21500;45.308;9.488;2023-06-14T02:53:47;20.30;99.90
35395;DHT22;21500;45.308;9.488;2023-06-14T02:56:12;20.20;99.90
35395;DHT22;21500;45.308;9.488;2023-06-14T02:58:39;20.30;99.90
35395;DHT22;21500;45.308;9.488;2023-06-14T03:01:06;20.20;99.90
35395;DHT22;21500;45.308;9.488;2023-06-14T03:03:34;20.20;99.90
35395;DHT22;21500;45.308;9.488;2023-06-14T03:06:00;20.10;99.90
35395;DHT22;21500;45.308;9.488;2023-06-14T03:08:32;20.10;99.90
35395;DHT22;21500;45.308;9.488;2023-06-14T03:11:07;20.20;99.90
35395;DHT22;21500;45.308;9.488;2023-06-14T03:13:35;20.10;99.90
35395;DHT22;21500;45.308;9.488;2023-06-14T03:16:02;20.20;99.90
35395;DHT22;21500;45.308;9.488;2023-06-14T03:18:30;20.20;99.90
35395;DHT22;21500;45.308;9.488;2023-06-14T03:21:02;20.10;99.90
35395;DHT22;21500;45.308;9.488;2023-06-14T03:23:30;20.10;99.90
35395;DHT22;21500;45.308;9.488;2023-06-14T03:25:56;20.10;99.90
35395;DHT22;21500;45.308;9.488;2023-06-14T03:28:22;20.10;99.90
35395;DHT22;21500;45.308;9.488;2023-06-14T03:30:49;20.10;99.90
35395;DHT22;21500;45.308;9.488;2023-06-14T03:33:15;20.20;99.90
35395;DHT22;21500;45.308;9.488;2023-06-14T03:35:41;20.10;99.90
35395;DHT22;21500;45.308;9.488;2023-06-14T03:38:08;20.10;99.90
35395;DHT22;21500;45.308;9.488;2023-06-14T03:40:35;20.00;99.90
35395;DHT22;21500;45.308;9.488;2023-06-14T03:43:02;20.00;99.90
35395;DHT22;21500;45.308;9.488;2023-06-14T03:45:28;20.00;99.90
35395;DHT22;21500;45.308;9.488;2023-06-14T03:47:56;20.00;99.90
35395;DHT22;21500;45.308;9.488;2023-06-14T03:50:23;20.00;99.90
35395;DHT22;21500;45.308;9.488;2023-06-14T03:52:50;19.90;99.90
35395;DHT22;21500;45.308;9.488;2023-06-14T03:55:17;20.00;99.90
35395;DHT22;21500;45.308;9.488;2023-06-14T03:57:44;20.00;99.90
35395;DHT22;21500;45.308;9.488;2023-06-14T04:00:13;19.90;99.90
35395;DHT22;21500;45.308;9.488;2023-06-14T04:02:40;20.00;99.90
35395;DHT22;21500;45.308;9.488;2023-06-14T04:05:08;19.90;99.90
35395;DHT22;21500;45.308;9.488;2023-06-14T04:07:37;20.00;99.90
35395;DHT22;21500;45.308;9.488;2023-06-14T04:10:11;20.00;99.90
35395;DHT22;21500;45.308;9.488;2023-06-14T04:12:37;20.00;99.90
35395;DHT22;21500;45.308;9.488;2023-06-14T04:15:03;20.00;99.90
35395;DHT22;21500;45.308;9.488;2023-06-14T04:17:32;20.00;99.90
35395;DHT22;21500;45.308;9.488;2023-06-14T04:20:03;20.10;99.90
35395;DHT22;21500;45.308;9.488;2023-06-14T04:22:31;20.10;99.90
35395;DHT22;21500;45.308;9.488;2023-06-14T04:24:58;20.00;99.90
35395;DHT22;21500;45.308;9.488;2023-06-14T04:27:26;20.00;99.90
35395;DHT22;21500;45.308;9.488;2023-06-14T04:29:53;20.00;99.90
35395;DHT22;21500;45.308;9.488;2023-06-14T04:32:26;20.00;99.90
35395;DHT22;21500;45.308;9.488;2023-06-14T04:34:56;20.00;99.90
35395;DHT22;21500;45.308;9.488;2023-06-14T04:37:25;20.00;99.90
35395;DHT22;21500;45.308;9.488;2023-06-14T04:39:55;20.00;99.90
35395;DHT22;21500;45.308;9.488;2023-06-14T04:42:22;20.00;99.90
35395;DHT22;21500;45.308;9.488;2023-06-14T04:44:51;20.20;99.90
35395;DHT22;21500;45.308;9.488;2023-06-14T04:47:22;20.10;99.90
35395;DHT22;21500;45.308;9.488;2023-06-14T04:49:51;20.10;99.90
35395;DHT22;21500;45.308;9.488;2023-06-14T04:52:20;20.10;99.90
35395;DHT22;21500;45.308;9.488;2023-06-14T04:54:47;20.10;99.90
35395;DHT22;21500;45.308;9.488;2023-06-14T04:57:18;20.20;99.90
35395;DHT22;21500;45.308;9.488;2023-06-14T04:59:48;20.20;99.90
35395;DHT22;21500;45.308;9.488;2023-06-14T05:02:22;20.20;99.90
35395;DHT22;21500;45.308;9.488;2023-06-14T05:04:49;20.20;99.90
35395;DHT22;21500;45.308;9.488;2023-06-14T05:07:16;20.30;99.90
35395;DHT22;21500;45.308;9.488;2023-06-14T05:09:42;20.20;99.90
35395;DHT22;21500;45.308;9.488;2023-06-14T05:12:08;20.20;99.90
35395;DHT22;21500;45.308;9.488;2023-06-14T05:14:35;20.20;99.90
35395;DHT22;21500;45.308;9.488;2023-06-14T05:17:01;20.10;99.90
35395;DHT22;21500;45.308;9.488;2023-06-14T05:19:28;20.20;99.90
35395;DHT22;21500;45.308;9.488;2023-06-14T05:21:54;20.20;99.90
35395;DHT22;21500;45.308;9.488;2023-06-14T05:24:20;20.20;99.90
35395;DHT22;21500;45.308;9.488;2023-06-14T05:26:46;20.10;99.90
35395;DHT22;21500;45.308;9.488;2023-06-14T05:29:12;20.10;99.90
35395;DHT22;21500;45.308;9.488;2023-06-14T05:31:38;20.20;99.90
35395;DHT22;21500;45.308;9.488;2023-06-14T05:34:04;20.20;99.90
35395;DHT22;21500;45.308;9.488;2023-06-14T05:36:30;20.20;99.90
35395;DHT22;21500;45.308;9.488;2023-06-14T05:38:56;20.30;99.90
35395;DHT22;21500;45.308;9.488;2023-06-14T05:41:26;20.30;99.90
35395;DHT22;21500;45.308;9.488;2023-06-14T05:43:53;20.20;99.90
35395;DHT22;21500;45.308;9.488;2023-06-14T05:46:20;20.20;99.90
35395;DHT22;21500;45.308;9.488;2023-06-14T05:48:56;20.20;99.90
35395;DHT22;21500;45.308;9.488;2023-06-14T05:51:22;20.20;99.90
35395;DHT22;21500;45.308;9.488;2023-06-14T05:53:51;20.20;99.90
35395;DHT22;21500;45.308;9.488;2023-06-14T05:56:17;20.20;99.90
35395;DHT22;21500;45.308;9.488;2023-06-14T05:58:46;20.20;99.90
35395;DHT22;21500;45.308;9.488;2023-06-14T06:01:13;20.10;99.90
35395;DHT22;21500;45.308;9.488;2023-06-14T06:03:41;20.10;99.90
35395;DHT22;21500;45.308;9.488;2023-06-14T06:06:12;20.20;99.90
35395;DHT22;21500;45.308;9.488;2023-06-14T06:08:37;20.20;99.90
35395;DHT22;21500;45.308;9.488;2023-06-14T06:11:03;20.30;99.90
35395;DHT22;21500;45.308;9.488;2023-06-14T06:13:29;20.20;99.90
35395;DHT22;21500;45.308;9.488;2023-06-14T06:15:55;20.20;99.90
35395;DHT22;21500;45.308;9.488;2023-06-14T06:18:21;20.40;99.90
35395;DHT22;21500;45.308;9.488;2023-06-14T06:20:47;20.40;99.90
35395;DHT22;21500;45.308;9.488;2023-06-14T06:23:13;20.40;99.90
35395;DHT22;21500;45.308;9.488;2023-06-14T06:25:46;20.40;99.90
35395;DHT22;21500;45.308;9.488;2023-06-14T06:28:12;20.50;99.90
35395;DHT22;21500;45.308;9.488;2023-06-14T06:30:38;20.50;99.90
35395;DHT22;21500;45.308;9.488;2023-06-14T06:33:03;20.40;99.90
35395;DHT22;21500;45.308;9.488;2023-06-14T06:35:29;20.50;99.90
35395;DHT22;21500;45.308;9.488;2023-06-14T06:37:56;20.60;99.90
35395;DHT22;21500;45.308;9.488;2023-06-14T06:40:22;20.70;99.90
35395;DHT22;21500;45.308;9.488;2023-06-14T06:42:48;20.90;99.90
35395;DHT22;21500;45.308;9.488;2023-06-14T06:45:17;21.00;99.90
35395;DHT22;21500;45.308;9.488;2023-06-14T06:47:43;21.00;99.90
35395;DHT22;21500;45.308;9.488;2023-06-14T06:50:09;21.00;99.90
35395;DHT22;21500;45.308;9.488;2023-06-14T06:52:35;21.10;99.90
35395;DHT22;21500;45.308;9.488;2023-06-14T06:55:01;21.10;99.90
35395;DHT22;21500;45.308;9.488;2023-06-14T06:57:27;21.20;99.90
35395;DHT22;21500;45.308;9.488;2023-06-14T06:59:55;21.20;99.90
35395;DHT22;21500;45.308;9.488;2023-06-14T07:02:20;21.20;99.90
35395;DHT22;21500;45.308;9.488;2023-06-14T07:04:46;21.30;99.90
35395;DHT22;21500;45.308;9.488;2023-06-14T07:07:12;21.20;99.90
35395;DHT22;21500;45.308;9.488;2023-06-14T07:09:38;21.20;99.90
35395;DHT22;21500;45.308;9.488;2023-06-14T07:12:04;21.20;99.90
35395;DHT22;21500;45.308;9.488;2023-06-14T07:14:30;21.20;99.90
35395;DHT22;21500;45.308;9.488;2023-06-14T07:16:56;21.30;99.90
35395;DHT22;21500;45.308;9.488;2023-06-14T07:19:21;21.40;99.90
35395;DHT22;21500;45.308;9.488;2023-06-14T07:21:47;21.50;99.90
35395;DHT22;21500;45.308;9.488;2023-06-14T07:24:14;21.50;99.90
35395;DHT22;21500;45.308;9.488;2023-06-14T07:26:40;21.60;99.90
35395;DHT22;21500;45.308;9.488;2023-06-14T07:29:06;21.70;99.90
35395;DHT22;21500;45.308;9.488;2023-06-14T07:31:32;21.80;99.90
35395;DHT22;21500;45.308;9.488;2023-06-14T07:33:58;21.90;99.90
35395;DHT22;21500;45.308;9.488;2023-06-14T07:36:23;21.90;99.90
35395;DHT22;21500;45.308;9.488;2023-06-14T07:38:49;21.90;99.90
35395;DHT22;21500;45.308;9.488;2023-06-14T07:41:16;22.00;99.90
35395;DHT22;21500;45.308;9.488;2023-06-14T07:43:42;21.90;99.90
35395;DHT22;21500;45.308;9.488;2023-06-14T07:46:09;22.00;99.90
35395;DHT22;21500;45.308;9.488;2023-06-14T07:48:35;21.90;99.90
35395;DHT22;21500;45.308;9.488;2023-06-14T07:51:01;22.00;99.90
35395;DHT22;21500;45.308;9.488;2023-06-14T07:53:26;22.10;99.90
35395;DHT22;21500;45.308;9.488;2023-06-14T07:55:52;22.10;99.90
35395;DHT22;21500;45.308;9.488;2023-06-14T07:58:18;22.20;99.90
35395;DHT22;21500;45.308;9.488;2023-06-14T08:00:44;22.10;99.90
35395;DHT22;21500;45.308;9.488;2023-06-14T08:03:09;22.10;99.90
35395;DHT22;21500;45.308;9.488;2023-06-14T08:05:35;22.10;99.90
35395;DHT22;21500;45.308;9.488;2023-06-14T08:08:01;22.20;99.90
35395;DHT22;21500;45.308;9.488;2023-06-14T08:10:27;22.10;99.90
35395;DHT22;21500;45.308;9.488;2023-06-14T08:12:53;22.10;99.90
35395;DHT22;21500;45.308;9.488;2023-06-14T08:15:19;22.10;99.90
35395;DHT22;21500;45.308;9.488;2023-06-14T08:17:46;22.10;99.90
35395;DHT22;21500;45.308;9.488;2023-06-14T08:20:13;22.10;99.90
35395;DHT22;21500;45.308;9.488;2023-06-14T08:22:42;22.20;99.90
35395;DHT22;21500;45.308;9.488;2023-06-14T08:25:09;22.20;99.90
35395;DHT22;21500;45.308;9.488;2023-06-14T08:27:36;22.20;99.90
35395;DHT22;21500;45.308;9.488;2023-06-14T08:30:02;22.30;99.90
35395;DHT22;21500;45.308;9.488;2023-06-14T08:32:29;22.30;99.90
35395;DHT22;21500;45.308;9.488;2023-06-14T08:34:55;22.30;99.90
35395;DHT22;21500;45.308;9.488;2023-06-14T08:37:20;22.30;99.90
35395;DHT22;21500;45.308;9.488;2023-06-14T08:39:46;22.20;99.90
35395;DHT22;21500;45.308;9.488;2023-06-14T08:42:12;22.20;99.90
35395;DHT22;21500;45.308;9.488;2023-06-14T08:44:39;22.30;99.90
35395;DHT22;21500;45.308;9.488;2023-06-14T08:47:07;22.30;99.90
35395;DHT22;21500;45.308;9.488;2023-06-14T08:49:34;22.20;99.90
35395;DHT22;21500;45.308;9.488;2023-06-14T08:52:01;22.30;99.90
35395;DHT22;21500;45.308;9.488;2023-06-14T08:54:28;22.40;99.90
35395;DHT22;21500;45.308;9.488;2023-06-14T08:57:00;22.50;99.90
35395;DHT22;21500;45.308;9.488;2023-06-14T08:59:26;22.50;99.90
35395;DHT22;21500;45.308;9.488;2023-06-14T09:01:53;22.60;99.90
35395;DHT22;21500;45.308;9.488;2023-06-14T09:04:21;22.50;99.90
35395;DHT22;21500;45.308;9.488;2023-06-14T09:06:47;22.60;99.90
35395;DHT22;21500;45.308;9.488;2023-06-14T09:09:20;22.80;99.90
35395;DHT22;21500;45.308;9.488;2023-06-14T09:11:46;22.80;99.90
35395;DHT22;21500;45.308;9.488;2023-06-14T09:14:12;22.90;99.90
35395;DHT22;21500;45.308;9.488;2023-06-14T09:16:38;23.00;99.90
35395;DHT22;21500;45.308;9.488;2023-06-14T09:19:04;23.00;99.90
35395;DHT22;21500;45.308;9.488;2023-06-14T09:21:34;23.00;99.90
35395;DHT22;21500;45.308;9.488;2023-06-14T09:24:01;23.30;99.90
35395;DHT22;21500;45.308;9.488;2023-06-14T09:26:28;23.50;99.90
35395;DHT22;21500;45.308;9.488;2023-06-14T09:28:53;23.80;99.90
35395;DHT22;21500;45.308;9.488;2023-06-14T09:31:21;24.40;99.90
35395;DHT22;21500;45.308;9.488;2023-06-14T09:33:50;24.50;99.90
35395;DHT22;21500;45.308;9.488;2023-06-14T09:36:18;24.40;99.90
35395;DHT22;21500;45.308;9.488;2023-06-14T09:39:17;24.50;99.90
35395;DHT22;21500;45.308;9.488;2023-06-14T09:42:18;24.50;99.90
35395;DHT22;21500;45.308;9.488;2023-06-14T09:44:49;24.60;99.90
35395;DHT22;21500;45.308;9.488;2023-06-14T09:47:15;25.00;99.90
35395;DHT22;21500;45.308;9.488;2023-06-14T09:49:42;25.00;99.90
35395;DHT22;21500;45.308;9.488;2023-06-14T09:52:20;25.10;99.90
35395;DHT22;21500;45.308;9.488;2023-06-14T09:54:47;25.00;99.90
35395;DHT22;21500;45.308;9.488;2023-06-14T09:57:21;24.80;99.90
35395;DHT22;21500;45.308;9.488;2023-06-14T09:59:48;24.80;99.90
35395;DHT22;21500;45.308;9.488;2023-06-14T10:02:23;24.40;99.90
35395;DHT22;21500;45.308;9.488;2023-06-14T10:04:58;24.40;99.90
35395;DHT22;21500;45.308;9.488;2023-06-14T10:07:27;24.70;99.90
35395;DHT22;21500;45.308;9.488;2023-06-14T10:09:56;24.70;99.90
35395;DHT22;21500;45.308;9.488;2023-06-14T10:12:22;24.60;99.90
35395;DHT22;21500;45.308;9.488;2023-06-14T10:14:50;24.70;99.90
35395;DHT22;21500;45.308;9.488;2023-06-14T10:17:33;24.50;99.90
35395;DHT22;21500;45.308;9.488;2023-06-14T10:22:50;24.90;99.90
35395;DHT22;21500;45.308;9.488;2023-06-14T10:25:30;25.20;99.90
35395;DHT22;21500;45.308;9.488;2023-06-14T10:31:11;25.10;99.90
35395;DHT22;21500;45.308;9.488;2023-06-14T10:33:56;24.90;99.90
35395;DHT22;21500;45.308;9.488;2023-06-14T10:39:07;24.50;99.90
35395;DHT22;21500;45.308;9.488;2023-06-14T10:41:38;24.60;99.90
35395;DHT22;21500;45.308;9.488;2023-06-14T10:46:40;24.80;99.90
35395;DHT22;21500;45.308;9.488;2023-06-14T10:49:06;24.90;99.90
35395;DHT22;21500;45.308;9.488;2023-06-14T10:51:41;25.00;99.90
35395;DHT22;21500;45.308;9.488;2023-06-14T10:54:16;25.30;99.90
35395;DHT22;21500;45.308;9.488;2023-06-14T10:56:49;25.50;99.90
35395;DHT22;21500;45.308;9.488;2023-06-14T10:59:18;25.40;99.90
35395;DHT22;21500;45.308;9.488;2023-06-14T11:04:20;25.40;99.90
35395;DHT22;21500;45.308;9.488;2023-06-14T11:06:50;25.10;99.90
35395;DHT22;21500;45.308;9.488;2023-06-14T11:12:32;25.60;99.90
35395;DHT22;21500;45.308;9.488;2023-06-14T11:14:59;25.40;99.90
35395;DHT22;21500;45.308;9.488;2023-06-14T11:17:26;25.40;99.90
35395;DHT22;21500;45.308;9.488;2023-06-14T11:20:13;25.40;99.90
35395;DHT22;21500;45.308;9.488;2023-06-14T11:22:44;25.80;99.90
35395;DHT22;21500;45.308;9.488;2023-06-14T11:25:14;25.70;99.90
35395;DHT22;21500;45.308;9.488;2023-06-14T11:27:44;25.50;99.90
35395;DHT22;21500;45.308;9.488;2023-06-14T11:30:10;25.40;99.90
35395;DHT22;21500;45.308;9.488;2023-06-14T11:32:37;25.40;99.90
35395;DHT22;21500;45.308;9.488;2023-06-14T11:35:04;25.60;99.90
35395;DHT22;21500;45.308;9.488;2023-06-14T11:37:32;25.80;99.90
35395;DHT22;21500;45.308;9.488;2023-06-14T11:40:01;25.50;99.90
35395;DHT22;21500;45.308;9.488;2023-06-14T11:42:29;25.30;99.90
35395;DHT22;21500;45.308;9.488;2023-06-14T11:44:55;25.40;99.90
35395;DHT22;21500;45.308;9.488;2023-06-14T11:47:22;25.40;99.90
35395;DHT22;21500;45.308;9.488;2023-06-14T11:49:48;25.50;99.90
35395;DHT22;21500;45.308;9.488;2023-06-14T11:52:14;25.80;99.90
35395;DHT22;21500;45.308;9.488;2023-06-14T11:54:40;26.10;99.90
35395;DHT22;21500;45.308;9.488;2023-06-14T11:57:07;26.20;99.90
35395;DHT22;21500;45.308;9.488;2023-06-14T11:59:40;26.40;99.90
35395;DHT22;21500;45.308;9.488;2023-06-14T12:02:06;26.80;99.90
35395;DHT22;21500;45.308;9.488;2023-06-14T12:04:36;26.70;99.90
35395;DHT22;21500;45.308;9.488;2023-06-14T12:07:11;26.40;99.90
35395;DHT22;21500;45.308;9.488;2023-06-14T12:12:25;26.00;99.90
35395;DHT22;21500;45.308;9.488;2023-06-14T12:14:51;26.10;99.90
35395;DHT22;21500;45.308;9.488;2023-06-14T12:17:18;25.90;99.90
35395;DHT22;21500;45.308;9.488;2023-06-14T12:19:45;25.90;99.90
35395;DHT22;21500;45.308;9.488;2023-06-14T12:22:15;26.20;99.90
35395;DHT22;21500;45.308;9.488;2023-06-14T12:24:46;25.90;99.90
35395;DHT22;21500;45.308;9.488;2023-06-14T12:27:15;26.30;99.90
35395;DHT22;21500;45.308;9.488;2023-06-14T12:29:42;26.30;99.90
35395;DHT22;21500;45.308;9.488;2023-06-14T12:32:11;26.60;99.90
35395;DHT22;21500;45.308;9.488;2023-06-14T12:34:37;27.00;99.90
35395;DHT22;21500;45.308;9.488;2023-06-14T12:37:03;27.00;99.90
35395;DHT22;21500;45.308;9.488;2023-06-14T12:39:32;26.50;99.60
35395;DHT22;21500;45.308;9.488;2023-06-14T12:41:58;26.20;99.90
35395;DHT22;21500;45.308;9.488;2023-06-14T12:44:25;25.80;99.90
35395;DHT22;21500;45.308;9.488;2023-06-14T12:46:52;25.80;99.90
35395;DHT22;21500;45.308;9.488;2023-06-14T12:49:20;25.70;99.90
35395;DHT22;21500;45.308;9.488;2023-06-14T12:51:46;25.60;99.90
35395;DHT22;21500;45.308;9.488;2023-06-14T12:54:12;25.90;99.90
35395;DHT22;21500;45.308;9.488;2023-06-14T12:56:38;26.00;99.90
35395;DHT22;21500;45.308;9.488;2023-06-14T12:59:03;26.00;99.90
35395;DHT22;21500;45.308;9.488;2023-06-14T13:01:32;26.10;99.90
35395;DHT22;21500;45.308;9.488;2023-06-14T13:03:57;26.10;99.90
35395;DHT22;21500;45.308;9.488;2023-06-14T13:06:23;25.80;99.90
35395;DHT22;21500;45.308;9.488;2023-06-14T13:08:49;25.50;99.90
35395;DHT22;21500;45.308;9.488;2023-06-14T13:11:15;25.60;99.90
35395;DHT22;21500;45.308;9.488;2023-06-14T13:13:41;25.80;99.90
35395;DHT22;21500;45.308;9.488;2023-06-14T13:16:07;25.80;99.90
35395;DHT22;21500;45.308;9.488;2023-06-14T13:18:33;25.80;99.90
35395;DHT22;21500;45.308;9.488;2023-06-14T13:20:59;25.80;99.90
35395;DHT22;21500;45.308;9.488;2023-06-14T13:23:25;25.50;99.90
35395;DHT22;21500;45.308;9.488;2023-06-14T13:25:51;25.40;99.90
35395;DHT22;21500;45.308;9.488;2023-06-14T13:28:17;25.60;99.90
35395;DHT22;21500;45.308;9.488;2023-06-14T13:30:43;25.70;99.90
35395;DHT22;21500;45.308;9.488;2023-06-14T13:33:08;25.60;99.90
35395;DHT22;21500;45.308;9.488;2023-06-14T13:35:34;25.50;99.90
35395;DHT22;21500;45.308;9.488;2023-06-14T13:38:00;25.50;99.90
35395;DHT22;21500;45.308;9.488;2023-06-14T13:40:26;25.90;99.90
35395;DHT22;21500;45.308;9.488;2023-06-14T13:42:52;26.30;99.90
35395;DHT22;21500;45.308;9.488;2023-06-14T13:45:18;26.30;99.90
35395;DHT22;21500;45.308;9.488;2023-06-14T13:47:44;26.50;99.90
35395;DHT22;21500;45.308;9.488;2023-06-14T13:50:10;26.50;99.90
35395;DHT22;21500;45.308;9.488;2023-06-14T13:52:36;26.20;99.90
35395;DHT22;21500;45.308;9.488;2023-06-14T13:55:02;25.90;99.90
35395;DHT22;21500;45.308;9.488;2023-06-14T13:57:28;26.30;99.90
35395;DHT22;21500;45.308;9.488;2023-06-14T13:59:54;26.40;99.90
35395;DHT22;21500;45.308;9.488;2023-06-14T14:02:21;26.50;99.90
35395;DHT22;21500;45.308;9.488;2023-06-14T14:04:46;26.30;99.90
35395;DHT22;21500;45.308;9.488;2023-06-14T14:07:19;26.20;99.90
35395;DHT22;21500;45.308;9.488;2023-06-14T14:09:46;26.60;99.90
35395;DHT22;21500;45.308;9.488;2023-06-14T14:12:13;26.70;99.90
35395;DHT22;21500;45.308;9.488;2023-06-14T14:14:39;26.60;99.90
35395;DHT22;21500;45.308;9.488;2023-06-14T14:17:05;26.50;99.90
35395;DHT22;21500;45.308;9.488;2023-06-14T14:19:32;26.80;99.90
35395;DHT22;21500;45.308;9.488;2023-06-14T14:21:58;26.80;99.90
35395;DHT22;21500;45.308;9.488;2023-06-14T14:24:24;26.60;98.70
35395;DHT22;21500;45.308;9.488;2023-06-14T14:26:51;26.60;98.10
35395;DHT22;21500;45.308;9.488;2023-06-14T14:29:19;26.50;97.90
35395;DHT22;21500;45.308;9.488;2023-06-14T14:31:45;26.50;97.70
35395;DHT22;21500;45.308;9.488;2023-06-14T14:34:11;26.60;98.20
35395;DHT22;21500;45.308;9.488;2023-06-14T14:36:37;26.30;98.50
35395;DHT22;21500;45.308;9.488;2023-06-14T14:39:06;26.30;98.40
35395;DHT22;21500;45.308;9.488;2023-06-14T14:41:32;26.20;99.20
35395;DHT22;21500;45.308;9.488;2023-06-14T14:43:58;26.40;99.30
35395;DHT22;21500;45.308;9.488;2023-06-14T14:46:27;26.60;98.90
35395;DHT22;21500;45.308;9.488;2023-06-14T14:48:53;26.80;98.50
35395;DHT22;21500;45.308;9.488;2023-06-14T14:51:19;27.40;97.90
35395;DHT22;21500;45.308;9.488;2023-06-14T14:53:45;27.40;97.90
35395;DHT22;21500;45.308;9.488;2023-06-14T14:56:11;27.30;98.00
35395;DHT22;21500;45.308;9.488;2023-06-14T14:58:37;27.00;97.50
35395;DHT22;21500;45.308;9.488;2023-06-14T15:01:03;27.00;97.00
35395;DHT22;21500;45.308;9.488;2023-06-14T15:03:31;26.70;97.20
35395;DHT22;21500;45.308;9.488;2023-06-14T15:05:57;26.70;97.90
35395;DHT22;21500;45.308;9.488;2023-06-14T15:08:23;26.70;98.20
35395;DHT22;21500;45.308;9.488;2023-06-14T15:10:49;26.90;98.90
35395;DHT22;21500;45.308;9.488;2023-06-14T15:13:20;26.90;99.00
35395;DHT22;21500;45.308;9.488;2023-06-14T15:15:45;26.70;98.90
35395;DHT22;21500;45.308;9.488;2023-06-14T15:18:11;26.50;99.40
35395;DHT22;21500;45.308;9.488;2023-06-14T15:20:37;26.60;99.60
35395;DHT22;21500;45.308;9.488;2023-06-14T15:23:03;26.70;98.80
35395;DHT22;21500;45.308;9.488;2023-06-14T15:25:29;26.80;98.70
35395;DHT22;21500;45.308;9.488;2023-06-14T15:27:55;26.90;98.50
35395;DHT22;21500;45.308;9.488;2023-06-14T15:30:22;27.10;98.30
35395;DHT22;21500;45.308;9.488;2023-06-14T15:32:48;27.00;99.00
35395;DHT22;21500;45.308;9.488;2023-06-14T15:35:17;26.90;99.60
35395;DHT22;21500;45.308;9.488;2023-06-14T15:37:47;26.50;99.90
35395;DHT22;21500;45.308;9.488;2023-06-14T15:40:13;26.40;99.90
35395;DHT22;21500;45.308;9.488;2023-06-14T15:42:39;26.70;99.90
35395;DHT22;21500;45.308;9.488;2023-06-14T15:45:05;26.70;99.90
35395;DHT22;21500;45.308;9.488;2023-06-14T15:47:31;26.40;99.90
35395;DHT22;21500;45.308;9.488;2023-06-14T15:49:56;26.40;99.90
35395;DHT22;21500;45.308;9.488;2023-06-14T15:52:22;26.60;99.90
35395;DHT22;21500;45.308;9.488;2023-06-14T15:54:48;26.60;99.90